Phnom Penh, Cambodia
Current Conditions -  °F | °C
As of 11:00 PM on Thursday 29 Jan 2015 (Local Time) from VDPP Reporting Station
Clear Clear  
Wind Chill: 79°   Ceiling: Unl
Heat Index: 82°   Visibility: 6mi
Dew Point: 72°   Wind: 6mph
Humidity: 78%   Direction: 230°SW
Pressure: 29.88"   Gusts: NA
Location:  11.56°N, 104.92°E
Report Text: VDPP 291600Z 23005KT 9000 NSC 26/22 Q1012
Loading
Personal Weather Stations






























Interactive Weather Map New forecast layout! Learn more

10-Day Weather Forecast

Advertisements
Track Severe Weather on mobile